sensor_id;sensor_type;location;lat;lon;timestamp;P1;durP1;ratioP1;P2;durP2;ratioP2
13197;SDS011;6664;52.514;13.440;2023-04-01T00:00:34;1.67;;;1.30;;
13197;SDS011;6664;52.514;13.440;2023-04-01T00:03:20;2.93;;;1.40;;
13197;SDS011;6664;52.514;13.440;2023-04-01T00:06:07;1.43;;;1.30;;
13197;SDS011;6664;52.514;13.440;2023-04-01T00:08:54;2.40;;;1.37;;
13197;SDS011;6664;52.514;13.440;2023-04-01T00:11:40;3.40;;;1.27;;
13197;SDS011;6664;52.514;13.440;2023-04-01T00:14:29;1.30;;;1.20;;
13197;SDS011;6664;52.514;13.440;2023-04-01T00:17:15;2.30;;;1.80;;
13197;SDS011;6664;52.514;13.440;2023-04-01T00:20:01;1.60;;;1.10;;
13197;SDS011;6664;52.514;13.440;2023-04-01T00:22:47;1.23;;;1.23;;
13197;SDS011;6664;52.514;13.440;2023-04-01T00:25:32;2.07;;;1.17;;
13197;SDS011;6664;52.514;13.440;2023-04-01T00:28:19;3.10;;;1.37;;
13197;SDS011;6664;52.514;13.440;2023-04-01T00:31:06;1.33;;;1.13;;
13197;SDS011;6664;52.514;13.440;2023-04-01T00:33:52;2.33;;;1.40;;
13197;SDS011;6664;52.514;13.440;2023-04-01T00:36:38;1.33;;;1.20;;
13197;SDS011;6664;52.514;13.440;2023-04-01T00:39:23;2.40;;;1.30;;
13197;SDS011;6664;52.514;13.440;2023-04-01T00:42:12;1.67;;;1.53;;
13197;SDS011;6664;52.514;13.440;2023-04-01T00:44:59;3.70;;;1.20;;
13197;SDS011;6664;52.514;13.440;2023-04-01T00:48:14;1.23;;;1.13;;
13197;SDS011;6664;52.514;13.440;2023-04-01T00:51:14;2.83;;;1.43;;
13197;SDS011;6664;52.514;13.440;2023-04-01T00:54:03;1.07;;;1.07;;
13197;SDS011;6664;52.514;13.440;2023-04-01T00:56:51;1.83;;;1.30;;
13197;SDS011;6664;52.514;13.440;2023-04-01T00:59:43;1.93;;;1.53;;
13197;SDS011;6664;52.514;13.440;2023-04-01T01:02:32;1.50;;;1.40;;
13197;SDS011;6664;52.514;13.440;2023-04-01T01:05:23;1.57;;;1.47;;
13197;SDS011;6664;52.514;13.440;2023-04-01T01:11:42;1.27;;;1.17;;
13197;SDS011;6664;52.514;13.440;2023-04-01T01:17:33;1.50;;;1.40;;
13197;SDS011;6664;52.514;13.440;2023-04-01T01:26:38;1.63;;;1.53;;
13197;SDS011;6664;52.514;13.440;2023-04-01T01:29:53;1.50;;;1.40;;
13197;SDS011;6664;52.514;13.440;2023-04-01T01:35:55;1.30;;;1.20;;
13197;SDS011;6664;52.514;13.440;2023-04-01T01:38:43;1.20;;;1.20;;
13197;SDS011;6664;52.514;13.440;2023-04-01T01:41:32;2.33;;;1.70;;
13197;SDS011;6664;52.514;13.440;2023-04-01T01:44:21;1.60;;;1.50;;
13197;SDS011;6664;52.514;13.440;2023-04-01T01:47:07;1.67;;;1.53;;
13197;SDS011;6664;52.514;13.440;2023-04-01T01:49:53;1.23;;;1.13;;
13197;SDS011;6664;52.514;13.440;2023-04-01T01:52:41;1.73;;;1.47;;
13197;SDS011;6664;52.514;13.440;2023-04-01T01:55:34;1.90;;;1.47;;
13197;SDS011;6664;52.514;13.440;2023-04-01T01:58:33;6.63;;;1.77;;
13197;SDS011;6664;52.514;13.440;2023-04-01T02:01:27;1.37;;;1.27;;
13197;SDS011;6664;52.514;13.440;2023-04-01T02:04:17;3.37;;;1.30;;
13197;SDS011;6664;52.514;13.440;2023-04-01T02:07:04;4.10;;;1.30;;
13197;SDS011;6664;52.514;13.440;2023-04-01T02:10:00;3.13;;;2.03;;
13197;SDS011;6664;52.514;13.440;2023-04-01T02:12:47;1.63;;;1.53;;
13197;SDS011;6664;52.514;13.440;2023-04-01T02:15:34;2.37;;;1.40;;
13197;SDS011;6664;52.514;13.440;2023-04-01T02:18:25;1.00;;;1.00;;
13197;SDS011;6664;52.514;13.440;2023-04-01T02:21:13;3.40;;;1.70;;
13197;SDS011;6664;52.514;13.440;2023-04-01T02:24:00;3.33;;;1.57;;
13197;SDS011;6664;52.514;13.440;2023-04-01T02:26:50;1.50;;;1.40;;
13197;SDS011;6664;52.514;13.440;2023-04-01T02:29:38;1.80;;;1.10;;
13197;SDS011;6664;52.514;13.440;2023-04-01T02:32:24;1.07;;;1.00;;
13197;SDS011;6664;52.514;13.440;2023-04-01T02:35:13;2.20;;;1.17;;
13197;SDS011;6664;52.514;13.440;2023-04-01T02:38:02;1.20;;;1.10;;
13197;SDS011;6664;52.514;13.440;2023-04-01T02:40:50;4.47;;;1.50;;
13197;SDS011;6664;52.514;13.440;2023-04-01T02:43:43;1.63;;;1.27;;
13197;SDS011;6664;52.514;13.440;2023-04-01T02:46:30;2.03;;;1.13;;
13197;SDS011;6664;52.514;13.440;2023-04-01T02:49:19;1.60;;;1.50;;
13197;SDS011;6664;52.514;13.440;2023-04-01T02:52:04;1.10;;;1.10;;
13197;SDS011;6664;52.514;13.440;2023-04-01T02:54:50;1.37;;;1.23;;
13197;SDS011;6664;52.514;13.440;2023-04-01T02:57:36;1.40;;;1.20;;
13197;SDS011;6664;52.514;13.440;2023-04-01T03:00:25;1.60;;;1.50;;
13197;SDS011;6664;52.514;13.440;2023-04-01T03:03:13;2.10;;;1.43;;
13197;SDS011;6664;52.514;13.440;2023-04-01T03:06:04;1.10;;;1.10;;
13197;SDS011;6664;52.514;13.440;2023-04-01T03:08:54;1.27;;;1.13;;
13197;SDS011;6664;52.514;13.440;2023-04-01T03:11:40;1.40;;;1.30;;
13197;SDS011;6664;52.514;13.440;2023-04-01T03:14:30;2.60;;;0.83;;
13197;SDS011;6664;52.514;13.440;2023-04-01T03:17:17;3.20;;;1.37;;
13197;SDS011;6664;52.514;13.440;2023-04-01T03:20:08;2.60;;;1.50;;
13197;SDS011;6664;52.514;13.440;2023-04-01T03:22:55;1.47;;;1.23;;
13197;SDS011;6664;52.514;13.440;2023-04-01T03:25:41;1.37;;;1.27;;
13197;SDS011;6664;52.514;13.440;2023-04-01T03:28:28;2.90;;;1.20;;
13197;SDS011;6664;52.514;13.440;2023-04-01T03:31:16;2.40;;;1.17;;
13197;SDS011;6664;52.514;13.440;2023-04-01T03:34:02;1.50;;;1.20;;
13197;SDS011;6664;52.514;13.440;2023-04-01T03:36:50;1.40;;;1.10;;
13197;SDS011;6664;52.514;13.440;2023-04-01T03:39:39;1.60;;;1.13;;
13197;SDS011;6664;52.514;13.440;2023-04-01T03:42:27;2.20;;;1.70;;
13197;SDS011;6664;52.514;13.440;2023-04-01T03:45:12;2.30;;;1.20;;
13197;SDS011;6664;52.514;13.440;2023-04-01T03:48:00;1.23;;;1.13;;
13197;SDS011;6664;52.514;13.440;2023-04-01T03:50:46;1.30;;;1.20;;
13197;SDS011;6664;52.514;13.440;2023-04-01T03:53:32;2.07;;;1.10;;
13197;SDS011;6664;52.514;13.440;2023-04-01T03:56:17;3.87;;;1.40;;
13197;SDS011;6664;52.514;13.440;2023-04-01T03:59:03;1.33;;;0.97;;
13197;SDS011;6664;52.514;13.440;2023-04-01T04:01:51;3.73;;;1.17;;
13197;SDS011;6664;52.514;13.440;2023-04-01T04:04:39;3.43;;;1.37;;
13197;SDS011;6664;52.514;13.440;2023-04-01T04:07:29;1.40;;;1.17;;
13197;SDS011;6664;52.514;13.440;2023-04-01T04:10:17;1.70;;;1.20;;
13197;SDS011;6664;52.514;13.440;2023-04-01T04:13:03;2.20;;;1.40;;
13197;SDS011;6664;52.514;13.440;2023-04-01T04:15:49;1.43;;;1.20;;
13197;SDS011;6664;52.514;13.440;2023-04-01T04:18:34;10.70;;;1.60;;
13197;SDS011;6664;52.514;13.440;2023-04-01T04:21:23;1.70;;;1.60;;
13197;SDS011;6664;52.514;13.440;2023-04-01T04:24:11;2.70;;;1.50;;
13197;SDS011;6664;52.514;13.440;2023-04-01T04:26:57;4.40;;;1.73;;
13197;SDS011;6664;52.514;13.440;2023-04-01T04:29:44;1.20;;;1.10;;
13197;SDS011;6664;52.514;13.440;2023-04-01T04:32:30;2.00;;;1.90;;
13197;SDS011;6664;52.514;13.440;2023-04-01T04:35:15;1.77;;;1.33;;
13197;SDS011;6664;52.514;13.440;2023-04-01T04:38:04;4.73;;;1.77;;
13197;SDS011;6664;52.514;13.440;2023-04-01T04:40:50;4.20;;;1.57;;
13197;SDS011;6664;52.514;13.440;2023-04-01T04:43:38;1.93;;;1.83;;
13197;SDS011;6664;52.514;13.440;2023-04-01T04:46:25;2.80;;;1.83;;
13197;SDS011;6664;52.514;13.440;2023-04-01T04:49:10;2.17;;;1.53;;
13197;SDS011;6664;52.514;13.440;2023-04-01T04:51:56;9.77;;;1.83;;
13197;SDS011;6664;52.514;13.440;2023-04-01T04:54:41;1.57;;;1.40;;
13197;SDS011;6664;52.514;13.440;2023-04-01T04:57:29;4.47;;;1.90;;
13197;SDS011;6664;52.514;13.440;2023-04-01T05:00:15;2.20;;;1.70;;
13197;SDS011;6664;52.514;13.440;2023-04-01T05:03:00;2.80;;;1.87;;
13197;SDS011;6664;52.514;13.440;2023-04-01T05:05:53;3.07;;;1.83;;
13197;SDS011;6664;52.514;13.440;2023-04-01T05:08:38;2.90;;;1.67;;
13197;SDS011;6664;52.514;13.440;2023-04-01T05:11:25;5.63;;;1.63;;
13197;SDS011;6664;52.514;13.440;2023-04-01T05:14:15;2.90;;;1.77;;
13197;SDS011;6664;52.514;13.440;2023-04-01T05:17:01;3.03;;;1.50;;
13197;SDS011;6664;52.514;13.440;2023-04-01T05:19:47;2.80;;;1.30;;
13197;SDS011;6664;52.514;13.440;2023-04-01T05:22:33;1.67;;;1.57;;
13197;SDS011;6664;52.514;13.440;2023-04-01T05:25:18;5.90;;;1.97;;
13197;SDS011;6664;52.514;13.440;2023-04-01T05:28:04;1.40;;;1.30;;
13197;SDS011;6664;52.514;13.440;2023-04-01T05:30:51;4.40;;;1.50;;
13197;SDS011;6664;52.514;13.440;2023-04-01T05:33:36;6.03;;;1.40;;
13197;SDS011;6664;52.514;13.440;2023-04-01T05:36:22;2.70;;;1.50;;
13197;SDS011;6664;52.514;13.440;2023-04-01T05:39:07;6.77;;;2.10;;
13197;SDS011;6664;52.514;13.440;2023-04-01T05:41:53;1.93;;;1.50;;
13197;SDS011;6664;52.514;13.440;2023-04-01T05:44:38;1.97;;;1.43;;
13197;SDS011;6664;52.514;13.440;2023-04-01T05:47:24;2.93;;;1.70;;
13197;SDS011;6664;52.514;13.440;2023-04-01T05:50:10;2.13;;;1.10;;
13197;SDS011;6664;52.514;13.440;2023-04-01T05:52:57;1.93;;;1.70;;
13197;SDS011;6664;52.514;13.440;2023-04-01T05:55:43;2.10;;;1.57;;
13197;SDS011;6664;52.514;13.440;2023-04-01T05:58:29;2.20;;;1.50;;
13197;SDS011;6664;52.514;13.440;2023-04-01T06:01:14;5.17;;;1.80;;
13197;SDS011;6664;52.514;13.440;2023-04-01T06:04:00;1.53;;;1.40;;
13197;SDS011;6664;52.514;13.440;2023-04-01T06:06:46;2.83;;;1.77;;
13197;SDS011;6664;52.514;13.440;2023-04-01T06:09:32;2.80;;;1.80;;
13197;SDS011;6664;52.514;13.440;2023-04-01T06:15:43;4.30;;;1.70;;
13197;SDS011;6664;52.514;13.440;2023-04-01T06:28:10;2.83;;;1.70;;
13197;SDS011;6664;52.514;13.440;2023-04-01T06:31:24;3.77;;;2.00;;
13197;SDS011;6664;52.514;13.440;2023-04-01T06:49:40;5.70;;;2.27;;
13197;SDS011;6664;52.514;13.440;2023-04-01T06:55:27;4.20;;;2.80;;
13197;SDS011;6664;52.514;13.440;2023-04-01T06:58:36;5.40;;;2.83;;
13197;SDS011;6664;52.514;13.440;2023-04-01T07:01:28;5.43;;;2.60;;
13197;SDS011;6664;52.514;13.440;2023-04-01T07:04:22;4.67;;;2.20;;
13197;SDS011;6664;52.514;13.440;2023-04-01T07:16:31;4.67;;;2.43;;
13197;SDS011;6664;52.514;13.440;2023-04-01T07:25:16;3.67;;;2.03;;
13197;SDS011;6664;52.514;13.440;2023-04-01T07:28:05;4.13;;;2.80;;
13197;SDS011;6664;52.514;13.440;2023-04-01T07:31:07;3.47;;;2.63;;
13197;SDS011;6664;52.514;13.440;2023-04-01T07:34:09;4.83;;;2.40;;
13197;SDS011;6664;52.514;13.440;2023-04-01T07:37:06;2.53;;;2.20;;
13197;SDS011;6664;52.514;13.440;2023-04-01T07:48:50;3.67;;;2.37;;
13197;SDS011;6664;52.514;13.440;2023-04-01T08:03:41;2.30;;;2.10;;
13197;SDS011;6664;52.514;13.440;2023-04-01T08:09:50;4.73;;;2.57;;
13197;SDS011;6664;52.514;13.440;2023-04-01T08:15:49;2.50;;;1.80;;
13197;SDS011;6664;52.514;13.440;2023-04-01T08:21:54;2.87;;;1.40;;
13197;SDS011;6664;52.514;13.440;2023-04-01T08:24:43;4.13;;;1.77;;
13197;SDS011;6664;52.514;13.440;2023-04-01T08:27:37;1.53;;;1.43;;
13197;SDS011;6664;52.514;13.440;2023-04-01T08:30:50;2.20;;;2.00;;
13197;SDS011;6664;52.514;13.440;2023-04-01T08:33:34;2.30;;;2.10;;
13197;SDS011;6664;52.514;13.440;2023-04-01T08:36:28;2.70;;;2.50;;
13197;SDS011;6664;52.514;13.440;2023-04-01T08:39:28;3.80;;;2.70;;
13197;SDS011;6664;52.514;13.440;2023-04-01T09:04:41;5.43;;;3.73;;
13197;SDS011;6664;52.514;13.440;2023-04-01T09:08:02;5.23;;;3.67;;
13197;SDS011;6664;52.514;13.440;2023-04-01T09:14:06;6.50;;;3.43;;
13197;SDS011;6664;52.514;13.440;2023-04-01T09:17:05;5.30;;;4.00;;
13197;SDS011;6664;52.514;13.440;2023-04-01T09:26:30;4.10;;;3.70;;
13197;SDS011;6664;52.514;13.440;2023-04-01T09:32:42;4.37;;;3.60;;
13197;SDS011;6664;52.514;13.440;2023-04-01T09:35:47;4.57;;;4.17;;
13197;SDS011;6664;52.514;13.440;2023-04-01T09:45:41;4.80;;;3.77;;
13197;SDS011;6664;52.514;13.440;2023-04-01T09:48:46;14.60;;;4.87;;
13197;SDS011;6664;52.514;13.440;2023-04-01T10:21:07;4.80;;;4.37;;
13197;SDS011;6664;52.514;13.440;2023-04-01T10:24:19;4.40;;;3.80;;
13197;SDS011;6664;52.514;13.440;2023-04-01T10:37:39;4.53;;;4.23;;
13197;SDS011;6664;52.514;13.440;2023-04-01T10:44:03;3.50;;;3.20;;
13197;SDS011;6664;52.514;13.440;2023-04-01T10:48:40;4.07;;;3.77;;
13197;SDS011;6664;52.514;13.440;2023-04-01T10:51:56;4.30;;;3.90;;
13197;SDS011;6664;52.514;13.440;2023-04-01T11:33:15;1.57;;;1.47;;
13197;SDS011;6664;52.514;13.440;2023-04-01T11:39:20;2.03;;;1.93;;
13197;SDS011;6664;52.514;13.440;2023-04-01T11:45:34;1.47;;;1.40;;
13197;SDS011;6664;52.514;13.440;2023-04-01T11:54:56;1.70;;;1.60;;
13197;SDS011;6664;52.514;13.440;2023-04-01T11:58:12;1.90;;;1.80;;
13197;SDS011;6664;52.514;13.440;2023-04-01T12:01:26;2.20;;;2.10;;
13197;SDS011;6664;52.514;13.440;2023-04-01T12:17:26;2.30;;;2.10;;
13197;SDS011;6664;52.514;13.440;2023-04-01T12:29:21;2.53;;;2.37;;
13197;SDS011;6664;52.514;13.440;2023-04-01T12:42:04;3.43;;;3.23;;
13197;SDS011;6664;52.514;13.440;2023-04-01T13:00:39;3.10;;;2.90;;
13197;SDS011;6664;52.514;13.440;2023-04-01T13:09:57;5.07;;;4.57;;
13197;SDS011;6664;52.514;13.440;2023-04-01T13:22:02;5.30;;;4.63;;
13197;SDS011;6664;52.514;13.440;2023-04-01T13:28:56;4.67;;;4.27;;
13197;SDS011;6664;52.514;13.440;2023-04-01T13:32:12;4.70;;;4.30;;
13197;SDS011;6664;52.514;13.440;2023-04-01T13:54:31;4.50;;;4.10;;
13197;SDS011;6664;52.514;13.440;2023-04-01T14:00:48;3.87;;;3.57;;
13197;SDS011;6664;52.514;13.440;2023-04-01T14:08:29;4.33;;;3.93;;
13197;SDS011;6664;52.514;13.440;2023-04-01T14:10:55;4.33;;;4.03;;
13197;SDS011;6664;52.514;13.440;2023-04-01T14:32:51;4.57;;;4.00;;
13197;SDS011;6664;52.514;13.440;2023-04-01T14:51:41;4.23;;;3.67;;
13197;SDS011;6664;52.514;13.440;2023-04-01T14:54:30;3.50;;;3.20;;
13197;SDS011;6664;52.514;13.440;2023-04-01T14:57:27;3.40;;;3.20;;
13197;SDS011;6664;52.514;13.440;2023-04-01T15:00:16;3.23;;;3.03;;
13197;SDS011;6664;52.514;13.440;2023-04-01T15:03:13;3.17;;;2.87;;
13197;SDS011;6664;52.514;13.440;2023-04-01T15:13:12;3.30;;;3.07;;
13197;SDS011;6664;52.514;13.440;2023-04-01T15:16:34;3.90;;;3.53;;
13197;SDS011;6664;52.514;13.440;2023-04-01T15:19:59;3.43;;;3.17;;
13197;SDS011;6664;52.514;13.440;2023-04-01T15:23:21;6.40;;;3.47;;
13197;SDS011;6664;52.514;13.440;2023-04-01T15:26:30;3.73;;;3.43;;
13197;SDS011;6664;52.514;13.440;2023-04-01T15:29:28;3.93;;;2.87;;
13197;SDS011;6664;52.514;13.440;2023-04-01T15:41:16;3.10;;;2.37;;
13197;SDS011;6664;52.514;13.440;2023-04-01T15:44:03;3.20;;;2.60;;
13197;SDS011;6664;52.514;13.440;2023-04-01T15:46:49;2.97;;;2.70;;
13197;SDS011;6664;52.514;13.440;2023-04-01T15:49:39;2.77;;;2.50;;
13197;SDS011;6664;52.514;13.440;2023-04-01T15:56:52;2.63;;;2.43;;
13197;SDS011;6664;52.514;13.440;2023-04-01T15:59:28;3.57;;;3.27;;
13197;SDS011;6664;52.514;13.440;2023-04-01T16:02:25;3.20;;;3.00;;
13197;SDS011;6664;52.514;13.440;2023-04-01T16:09:02;4.77;;;3.40;;
13197;SDS011;6664;52.514;13.440;2023-04-01T16:11:57;3.83;;;3.53;;
13197;SDS011;6664;52.514;13.440;2023-04-01T16:23:55;4.03;;;3.57;;
13197;SDS011;6664;52.514;13.440;2023-04-01T16:26:53;3.47;;;3.17;;
13197;SDS011;6664;52.514;13.440;2023-04-01T16:29:46;3.20;;;3.00;;
13197;SDS011;6664;52.514;13.440;2023-04-01T16:35:30;2.87;;;2.57;;
13197;SDS011;6664;52.514;13.440;2023-04-01T16:41:42;3.33;;;3.13;;
13197;SDS011;6664;52.514;13.440;2023-04-01T16:47:58;2.50;;;2.30;;
13197;SDS011;6664;52.514;13.440;2023-04-01T16:50:58;3.07;;;2.87;;
13197;SDS011;6664;52.514;13.440;2023-04-01T16:53:50;2.43;;;2.27;;
13197;SDS011;6664;52.514;13.440;2023-04-01T16:56:54;2.30;;;2.17;;
13197;SDS011;6664;52.514;13.440;2023-04-01T16:59:57;2.83;;;2.50;;
13197;SDS011;6664;52.514;13.440;2023-04-01T17:06:12;6.30;;;2.57;;
13197;SDS011;6664;52.514;13.440;2023-04-01T17:09:59;3.20;;;2.90;;
13197;SDS011;6664;52.514;13.440;2023-04-01T17:34:06;3.13;;;2.83;;
13197;SDS011;6664;52.514;13.440;2023-04-01T17:46:10;5.33;;;3.10;;
13197;SDS011;6664;52.514;13.440;2023-04-01T18:04:50;7.07;;;3.80;;
13197;SDS011;6664;52.514;13.440;2023-04-01T18:10:51;2.83;;;2.63;;
13197;SDS011;6664;52.514;13.440;2023-04-01T18:20:20;3.40;;;3.10;;
13197;SDS011;6664;52.514;13.440;2023-04-01T18:23:36;3.60;;;3.30;;
13197;SDS011;6664;52.514;13.440;2023-04-01T18:26:39;3.43;;;2.77;;
13197;SDS011;6664;52.514;13.440;2023-04-01T18:29:59;3.30;;;2.80;;
13197;SDS011;6664;52.514;13.440;2023-04-01T18:32:59;2.63;;;2.40;;
13197;SDS011;6664;52.514;13.440;2023-04-01T18:39:33;3.97;;;3.50;;
13197;SDS011;6664;52.514;13.440;2023-04-01T18:45:27;3.60;;;3.30;;
13197;SDS011;6664;52.514;13.440;2023-04-01T18:51:51;2.70;;;2.50;;
13197;SDS011;6664;52.514;13.440;2023-04-01T18:54:47;3.43;;;3.03;;
13197;SDS011;6664;52.514;13.440;2023-04-01T18:57:58;2.77;;;2.57;;
13197;SDS011;6664;52.514;13.440;2023-04-01T19:01:14;4.00;;;2.60;;
13197;SDS011;6664;52.514;13.440;2023-04-01T19:17:00;4.70;;;3.73;;
13197;SDS011;6664;52.514;13.440;2023-04-01T19:26:25;3.80;;;3.50;;
13197;SDS011;6664;52.514;13.440;2023-04-01T19:32:13;6.80;;;4.33;;
13197;SDS011;6664;52.514;13.440;2023-04-01T19:35:13;6.97;;;4.03;;
13197;SDS011;6664;52.514;13.440;2023-04-01T19:47:36;5.90;;;3.80;;
13197;SDS011;6664;52.514;13.440;2023-04-01T19:50:50;5.93;;;4.10;;
13197;SDS011;6664;52.514;13.440;2023-04-01T19:56:41;3.67;;;3.33;;
13197;SDS011;6664;52.514;13.440;2023-04-01T19:59:36;5.47;;;3.40;;
13197;SDS011;6664;52.514;13.440;2023-04-01T20:02:39;6.87;;;4.17;;
13197;SDS011;6664;52.514;13.440;2023-04-01T20:05:30;5.27;;;4.67;;
13197;SDS011;6664;52.514;13.440;2023-04-01T20:08:28;5.30;;;4.10;;
13197;SDS011;6664;52.514;13.440;2023-04-01T20:11:27;6.50;;;3.40;;
13197;SDS011;6664;52.514;13.440;2023-04-01T20:14:42;5.30;;;3.23;;
13197;SDS011;6664;52.514;13.440;2023-04-01T20:17:45;5.10;;;3.80;;
13197;SDS011;6664;52.514;13.440;2023-04-01T20:20:33;5.10;;;4.20;;
13197;SDS011;6664;52.514;13.440;2023-04-01T20:23:30;6.73;;;4.17;;
13197;SDS011;6664;52.514;13.440;2023-04-01T20:26:24;9.00;;;4.23;;
13197;SDS011;6664;52.514;13.440;2023-04-01T20:29:24;4.20;;;3.80;;
13197;SDS011;6664;52.514;13.440;2023-04-01T20:32:39;4.67;;;4.20;;
13197;SDS011;6664;52.514;13.440;2023-04-01T20:50:58;3.80;;;2.93;;
13197;SDS011;6664;52.514;13.440;2023-04-01T20:57:31;3.57;;;3.17;;
13197;SDS011;6664;52.514;13.440;2023-04-01T21:01:03;4.13;;;3.40;;
13197;SDS011;6664;52.514;13.440;2023-04-01T21:16:35;7.93;;;3.47;;
13197;SDS011;6664;52.514;13.440;2023-04-01T21:19:36;3.43;;;2.50;;
13197;SDS011;6664;52.514;13.440;2023-04-01T21:26:12;10.83;;;3.33;;
13197;SDS011;6664;52.514;13.440;2023-04-01T21:33:05;2.80;;;2.60;;
13197;SDS011;6664;52.514;13.440;2023-04-01T21:37:03;5.20;;;2.97;;
13197;SDS011;6664;52.514;13.440;2023-04-01T22:02:08;2.80;;;2.50;;
13197;SDS011;6664;52.514;13.440;2023-04-01T22:05:29;2.77;;;2.10;;
13197;SDS011;6664;52.514;13.440;2023-04-01T22:08:33;2.70;;;2.50;;
13197;SDS011;6664;52.514;13.440;2023-04-01T22:20:59;3.93;;;2.60;;
13197;SDS011;6664;52.514;13.440;2023-04-01T22:27:03;4.07;;;3.50;;
13197;SDS011;6664;52.514;13.440;2023-04-01T22:33:14;3.67;;;1.87;;
13197;SDS011;6664;52.514;13.440;2023-04-01T22:42:12;3.40;;;2.37;;
13197;SDS011;6664;52.514;13.440;2023-04-01T22:48:26;2.40;;;2.20;;
13197;SDS011;6664;52.514;13.440;2023-04-01T22:57:38;3.03;;;2.20;;
13197;SDS011;6664;52.514;13.440;2023-04-01T23:00:32;2.10;;;2.00;;
13197;SDS011;6664;52.514;13.440;2023-04-01T23:03:25;1.77;;;1.67;;
13197;SDS011;6664;52.514;13.440;2023-04-01T23:06:17;2.40;;;2.20;;
13197;SDS011;6664;52.514;13.440;2023-04-01T23:09:23;2.40;;;2.20;;
13197;SDS011;6664;52.514;13.440;2023-04-01T23:12:15;3.40;;;2.30;;
13197;SDS011;6664;52.514;13.440;2023-04-01T23:15:03;2.20;;;2.07;;
13197;SDS011;6664;52.514;13.440;2023-04-01T23:21:15;3.87;;;2.80;;
13197;SDS011;6664;52.514;13.440;2023-04-01T23:24:30;2.27;;;2.13;;
13197;SDS011;6664;52.514;13.440;2023-04-01T23:33:29;1.80;;;1.70;;
13197;SDS011;6664;52.514;13.440;2023-04-01T23:36:15;2.30;;;2.10;;
13197;SDS011;6664;52.514;13.440;2023-04-01T23:39:03;4.70;;;1.80;;
13197;SDS011;6664;52.514;13.440;2023-04-01T23:41:55;2.07;;;1.87;;
13197;SDS011;6664;52.514;13.440;2023-04-01T23:44:45;3.17;;;2.10;;
13197;SDS011;6664;52.514;13.440;2023-04-01T23:47:35;2.00;;;1.83;;
13197;SDS011;6664;52.514;13.440;2023-04-01T23:50:23;6.37;;;2.97;;
13197;SDS011;6664;52.514;13.440;2023-04-01T23:53:17;2.40;;;2.00;;
13197;SDS011;6664;52.514;13.440;2023-04-01T23:56:05;2.23;;;2.13;;
13197;SDS011;6664;52.514;13.440;2023-04-01T23:58:51;5.10;;;2.50;;
